sensor_id;sensor_type;location;lat;lon;timestamp;P1;durP1;ratioP1;P2;durP2;ratioP2
20306;SDS011;10312;52.434;13.206;2023-03-08T00:01:54;7.35;;;2.05;;
20306;SDS011;10312;52.434;13.206;2023-03-08T00:04:21;5.47;;;2.67;;
20306;SDS011;10312;52.434;13.206;2023-03-08T00:06:48;6.07;;;1.50;;
20306;SDS011;10312;52.434;13.206;2023-03-08T00:09:14;7.10;;;1.48;;
20306;SDS011;10312;52.434;13.206;2023-03-08T00:11:41;4.30;;;1.50;;
20306;SDS011;10312;52.434;13.206;2023-03-08T00:14:08;6.65;;;1.80;;
20306;SDS011;10312;52.434;13.206;2023-03-08T00:16:34;5.22;;;1.75;;
20306;SDS011;10312;52.434;13.206;2023-03-08T00:19:01;10.60;;;2.25;;
20306;SDS011;10312;52.434;13.206;2023-03-08T00:21:27;6.50;;;2.10;;
20306;SDS011;10312;52.434;13.206;2023-03-08T00:23:54;5.38;;;1.95;;
20306;SDS011;10312;52.434;13.206;2023-03-08T00:26:21;5.82;;;2.47;;
20306;SDS011;10312;52.434;13.206;2023-03-08T00:28:47;6.25;;;2.15;;
20306;SDS011;10312;52.434;13.206;2023-03-08T00:31:14;8.38;;;2.63;;
20306;SDS011;10312;52.434;13.206;2023-03-08T00:33:41;8.48;;;2.72;;
20306;SDS011;10312;52.434;13.206;2023-03-08T00:36:14;6.30;;;3.00;;
20306;SDS011;10312;52.434;13.206;2023-03-08T00:38:42;6.95;;;2.75;;
20306;SDS011;10312;52.434;13.206;2023-03-08T00:41:12;4.75;;;2.55;;
20306;SDS011;10312;52.434;13.206;2023-03-08T00:43:38;7.80;;;3.10;;
20306;SDS011;10312;52.434;13.206;2023-03-08T00:46:07;8.27;;;2.67;;
20306;SDS011;10312;52.434;13.206;2023-03-08T00:48:34;5.13;;;2.83;;
20306;SDS011;10312;52.434;13.206;2023-03-08T00:51:01;8.35;;;3.25;;
20306;SDS011;10312;52.434;13.206;2023-03-08T00:53:29;6.53;;;2.95;;
20306;SDS011;10312;52.434;13.206;2023-03-08T00:55:56;5.43;;;3.15;;
20306;SDS011;10312;52.434;13.206;2023-03-08T00:58:25;7.13;;;3.17;;
20306;SDS011;10312;52.434;13.206;2023-03-08T01:00:53;5.57;;;2.97;;
20306;SDS011;10312;52.434;13.206;2023-03-08T01:03:21;5.70;;;3.20;;
20306;SDS011;10312;52.434;13.206;2023-03-08T01:05:49;7.20;;;3.38;;
20306;SDS011;10312;52.434;13.206;2023-03-08T01:08:17;6.72;;;3.28;;
20306;SDS011;10312;52.434;13.206;2023-03-08T01:10:51;9.82;;;3.25;;
20306;SDS011;10312;52.434;13.206;2023-03-08T01:13:39;6.65;;;3.72;;
20306;SDS011;10312;52.434;13.206;2023-03-08T01:16:06;8.13;;;3.60;;
20306;SDS011;10312;52.434;13.206;2023-03-08T01:18:46;9.52;;;4.03;;
20306;SDS011;10312;52.434;13.206;2023-03-08T01:21:13;5.95;;;3.20;;
20306;SDS011;10312;52.434;13.206;2023-03-08T01:23:40;8.48;;;4.18;;
20306;SDS011;10312;52.434;13.206;2023-03-08T01:26:10;9.13;;;3.85;;
20306;SDS011;10312;52.434;13.206;2023-03-08T01:28:41;7.20;;;4.18;;
20306;SDS011;10312;52.434;13.206;2023-03-08T01:31:10;9.18;;;4.65;;
20306;SDS011;10312;52.434;13.206;2023-03-08T01:33:39;7.95;;;4.40;;
20306;SDS011;10312;52.434;13.206;2023-03-08T01:36:07;9.40;;;4.80;;
20306;SDS011;10312;52.434;13.206;2023-03-08T01:38:35;8.13;;;4.53;;
20306;SDS011;10312;52.434;13.206;2023-03-08T01:41:03;9.13;;;4.47;;
20306;SDS011;10312;52.434;13.206;2023-03-08T01:43:35;12.13;;;4.90;;
20306;SDS011;10312;52.434;13.206;2023-03-08T01:48:47;9.50;;;5.30;;
20306;SDS011;10312;52.434;13.206;2023-03-08T01:54:19;14.07;;;5.60;;
20306;SDS011;10312;52.434;13.206;2023-03-08T01:57:10;13.30;;;5.25;;
20306;SDS011;10312;52.434;13.206;2023-03-08T01:59:50;10.80;;;4.90;;
20306;SDS011;10312;52.434;13.206;2023-03-08T02:02:21;15.13;;;6.45;;
20306;SDS011;10312;52.434;13.206;2023-03-08T02:04:53;9.50;;;5.38;;
20306;SDS011;10312;52.434;13.206;2023-03-08T02:07:20;14.63;;;6.40;;
20306;SDS011;10312;52.434;13.206;2023-03-08T02:09:47;11.07;;;5.32;;
20306;SDS011;10312;52.434;13.206;2023-03-08T02:12:14;14.57;;;6.15;;
20306;SDS011;10312;52.434;13.206;2023-03-08T02:14:41;15.88;;;6.28;;
20306;SDS011;10312;52.434;13.206;2023-03-08T02:17:09;13.23;;;6.47;;
20306;SDS011;10312;52.434;13.206;2023-03-08T02:19:44;13.32;;;6.57;;
20306;SDS011;10312;52.434;13.206;2023-03-08T02:22:14;11.75;;;6.00;;
20306;SDS011;10312;52.434;13.206;2023-03-08T02:24:41;12.35;;;6.10;;
20306;SDS011;10312;52.434;13.206;2023-03-08T02:27:11;10.07;;;6.32;;
20306;SDS011;10312;52.434;13.206;2023-03-08T02:29:39;10.07;;;6.40;;
20306;SDS011;10312;52.434;13.206;2023-03-08T02:32:06;11.90;;;5.97;;
20306;SDS011;10312;52.434;13.206;2023-03-08T02:34:35;13.32;;;6.68;;
20306;SDS011;10312;52.434;13.206;2023-03-08T02:37:01;13.40;;;7.00;;
20306;SDS011;10312;52.434;13.206;2023-03-08T02:39:28;15.40;;;7.03;;
20306;SDS011;10312;52.434;13.206;2023-03-08T02:41:55;14.70;;;7.30;;
20306;SDS011;10312;52.434;13.206;2023-03-08T02:44:22;12.95;;;6.78;;
20306;SDS011;10312;52.434;13.206;2023-03-08T02:46:50;14.65;;;7.25;;
20306;SDS011;10312;52.434;13.206;2023-03-08T02:49:18;12.95;;;7.32;;
20306;SDS011;10312;52.434;13.206;2023-03-08T02:51:44;12.98;;;6.57;;
20306;SDS011;10312;52.434;13.206;2023-03-08T02:54:12;12.65;;;6.93;;
20306;SDS011;10312;52.434;13.206;2023-03-08T02:56:42;12.43;;;6.88;;
20306;SDS011;10312;52.434;13.206;2023-03-08T02:59:11;12.13;;;6.90;;
20306;SDS011;10312;52.434;13.206;2023-03-08T03:01:38;14.85;;;7.28;;
20306;SDS011;10312;52.434;13.206;2023-03-08T03:04:04;13.77;;;7.15;;
20306;SDS011;10312;52.434;13.206;2023-03-08T03:06:32;11.95;;;7.43;;
20306;SDS011;10312;52.434;13.206;2023-03-08T03:08:59;11.23;;;6.35;;
20306;SDS011;10312;52.434;13.206;2023-03-08T03:11:26;13.57;;;7.38;;
20306;SDS011;10312;52.434;13.206;2023-03-08T03:13:56;12.80;;;7.20;;
20306;SDS011;10312;52.434;13.206;2023-03-08T03:16:29;15.55;;;7.28;;
20306;SDS011;10312;52.434;13.206;2023-03-08T03:18:56;11.32;;;7.28;;
20306;SDS011;10312;52.434;13.206;2023-03-08T03:21:22;12.38;;;6.70;;
20306;SDS011;10312;52.434;13.206;2023-03-08T03:23:49;12.68;;;7.47;;
20306;SDS011;10312;52.434;13.206;2023-03-08T03:26:21;14.02;;;7.05;;
20306;SDS011;10312;52.434;13.206;2023-03-08T03:28:51;14.40;;;7.35;;
20306;SDS011;10312;52.434;13.206;2023-03-08T03:31:19;15.70;;;7.00;;
20306;SDS011;10312;52.434;13.206;2023-03-08T03:33:47;17.38;;;7.15;;
20306;SDS011;10312;52.434;13.206;2023-03-08T03:36:16;10.95;;;6.80;;
20306;SDS011;10312;52.434;13.206;2023-03-08T03:38:47;11.25;;;6.80;;
20306;SDS011;10312;52.434;13.206;2023-03-08T03:41:15;16.77;;;6.72;;
20306;SDS011;10312;52.434;13.206;2023-03-08T03:43:44;11.60;;;6.85;;
20306;SDS011;10312;52.434;13.206;2023-03-08T03:46:13;12.00;;;6.78;;
20306;SDS011;10312;52.434;13.206;2023-03-08T03:48:42;12.00;;;6.53;;
20306;SDS011;10312;52.434;13.206;2023-03-08T03:51:11;12.18;;;6.82;;
20306;SDS011;10312;52.434;13.206;2023-03-08T03:53:43;13.85;;;6.90;;
20306;SDS011;10312;52.434;13.206;2023-03-08T03:56:20;10.85;;;6.28;;
20306;SDS011;10312;52.434;13.206;2023-03-08T03:58:50;12.02;;;6.40;;
20306;SDS011;10312;52.434;13.206;2023-03-08T04:01:20;10.88;;;6.32;;
20306;SDS011;10312;52.434;13.206;2023-03-08T04:03:58;12.35;;;6.25;;
20306;SDS011;10312;52.434;13.206;2023-03-08T04:06:26;13.15;;;6.07;;
20306;SDS011;10312;52.434;13.206;2023-03-08T04:08:55;15.32;;;6.47;;
20306;SDS011;10312;52.434;13.206;2023-03-08T04:11:26;10.60;;;6.63;;
20306;SDS011;10312;52.434;13.206;2023-03-08T04:13:54;11.50;;;6.28;;
20306;SDS011;10312;52.434;13.206;2023-03-08T04:16:24;10.07;;;6.18;;
20306;SDS011;10312;52.434;13.206;2023-03-08T04:18:58;11.32;;;6.50;;
20306;SDS011;10312;52.434;13.206;2023-03-08T04:21:29;10.60;;;6.38;;
20306;SDS011;10312;52.434;13.206;2023-03-08T04:23:55;10.40;;;6.00;;
20306;SDS011;10312;52.434;13.206;2023-03-08T04:26:26;10.40;;;5.90;;
20306;SDS011;10312;52.434;13.206;2023-03-08T04:28:52;9.75;;;6.63;;
20306;SDS011;10312;52.434;13.206;2023-03-08T04:31:21;8.88;;;5.90;;
20306;SDS011;10312;52.434;13.206;2023-03-08T04:33:50;9.90;;;5.75;;
20306;SDS011;10312;52.434;13.206;2023-03-08T04:36:17;11.13;;;6.28;;
20306;SDS011;10312;52.434;13.206;2023-03-08T04:38:44;10.45;;;6.07;;
20306;SDS011;10312;52.434;13.206;2023-03-08T04:41:11;10.25;;;5.93;;
20306;SDS011;10312;52.434;13.206;2023-03-08T04:43:55;9.98;;;6.50;;
20306;SDS011;10312;52.434;13.206;2023-03-08T04:46:31;11.68;;;5.95;;
20306;SDS011;10312;52.434;13.206;2023-03-08T04:48:58;11.27;;;5.72;;
20306;SDS011;10312;52.434;13.206;2023-03-08T04:51:29;12.15;;;6.80;;
20306;SDS011;10312;52.434;13.206;2023-03-08T04:54:00;11.32;;;6.30;;
20306;SDS011;10312;52.434;13.206;2023-03-08T04:56:31;11.38;;;6.30;;
20306;SDS011;10312;52.434;13.206;2023-03-08T04:58:58;10.88;;;6.28;;
20306;SDS011;10312;52.434;13.206;2023-03-08T05:01:26;12.02;;;6.70;;
20306;SDS011;10312;52.434;13.206;2023-03-08T05:03:53;12.25;;;6.63;;
20306;SDS011;10312;52.434;13.206;2023-03-08T05:06:26;10.80;;;6.55;;
20306;SDS011;10312;52.434;13.206;2023-03-08T05:08:55;11.48;;;6.43;;
20306;SDS011;10312;52.434;13.206;2023-03-08T05:11:24;9.50;;;6.53;;
20306;SDS011;10312;52.434;13.206;2023-03-08T05:13:53;10.50;;;5.70;;
20306;SDS011;10312;52.434;13.206;2023-03-08T05:16:24;12.73;;;7.13;;
20306;SDS011;10312;52.434;13.206;2023-03-08T05:18:51;10.70;;;6.30;;
20306;SDS011;10312;52.434;13.206;2023-03-08T05:21:22;11.85;;;5.90;;
20306;SDS011;10312;52.434;13.206;2023-03-08T05:23:55;13.45;;;6.82;;
20306;SDS011;10312;52.434;13.206;2023-03-08T05:26:25;9.30;;;6.43;;
20306;SDS011;10312;52.434;13.206;2023-03-08T05:28:51;9.77;;;6.57;;
20306;SDS011;10312;52.434;13.206;2023-03-08T05:31:22;9.50;;;5.78;;
20306;SDS011;10312;52.434;13.206;2023-03-08T05:33:51;9.68;;;6.22;;
20306;SDS011;10312;52.434;13.206;2023-03-08T05:36:26;13.50;;;6.57;;
20306;SDS011;10312;52.434;13.206;2023-03-08T05:38:55;12.30;;;6.75;;
20306;SDS011;10312;52.434;13.206;2023-03-08T05:41:28;10.43;;;6.72;;
20306;SDS011;10312;52.434;13.206;2023-03-08T05:43:57;10.57;;;6.07;;
20306;SDS011;10312;52.434;13.206;2023-03-08T05:46:28;13.32;;;6.75;;
20306;SDS011;10312;52.434;13.206;2023-03-08T05:48:58;11.70;;;6.93;;
20306;SDS011;10312;52.434;13.206;2023-03-08T05:51:27;10.85;;;6.82;;
20306;SDS011;10312;52.434;13.206;2023-03-08T05:53:53;10.23;;;6.55;;
20306;SDS011;10312;52.434;13.206;2023-03-08T05:56:20;11.48;;;6.88;;
20306;SDS011;10312;52.434;13.206;2023-03-08T05:58:57;13.50;;;6.85;;
20306;SDS011;10312;52.434;13.206;2023-03-08T06:01:26;13.43;;;7.50;;
20306;SDS011;10312;52.434;13.206;2023-03-08T06:04:00;14.77;;;6.75;;
20306;SDS011;10312;52.434;13.206;2023-03-08T06:06:31;9.70;;;6.20;;
20306;SDS011;10312;52.434;13.206;2023-03-08T06:09:02;10.88;;;6.30;;
20306;SDS011;10312;52.434;13.206;2023-03-08T06:11:31;15.73;;;6.82;;
20306;SDS011;10312;52.434;13.206;2023-03-08T06:13:58;10.98;;;6.95;;
20306;SDS011;10312;52.434;13.206;2023-03-08T06:16:29;11.20;;;7.40;;
20306;SDS011;10312;52.434;13.206;2023-03-08T06:18:56;21.02;;;7.68;;
20306;SDS011;10312;52.434;13.206;2023-03-08T06:21:24;12.13;;;6.95;;
20306;SDS011;10312;52.434;13.206;2023-03-08T06:23:57;13.40;;;7.00;;
20306;SDS011;10312;52.434;13.206;2023-03-08T06:26:23;14.15;;;6.78;;
20306;SDS011;10312;52.434;13.206;2023-03-08T06:28:50;11.95;;;7.00;;
20306;SDS011;10312;52.434;13.206;2023-03-08T06:31:18;14.65;;;6.93;;
20306;SDS011;10312;52.434;13.206;2023-03-08T06:33:45;11.38;;;7.50;;
20306;SDS011;10312;52.434;13.206;2023-03-08T06:36:18;11.75;;;7.50;;
20306;SDS011;10312;52.434;13.206;2023-03-08T06:38:48;11.70;;;7.25;;
20306;SDS011;10312;52.434;13.206;2023-03-08T06:41:37;13.80;;;7.80;;
20306;SDS011;10312;52.434;13.206;2023-03-08T06:44:11;15.60;;;7.60;;
20306;SDS011;10312;52.434;13.206;2023-03-08T06:46:37;12.02;;;7.10;;
20306;SDS011;10312;52.434;13.206;2023-03-08T06:49:04;12.63;;;7.70;;
20306;SDS011;10312;52.434;13.206;2023-03-08T06:51:34;11.15;;;6.93;;
20306;SDS011;10312;52.434;13.206;2023-03-08T06:54:01;12.02;;;7.60;;
20306;SDS011;10312;52.434;13.206;2023-03-08T06:56:28;14.10;;;7.70;;
20306;SDS011;10312;52.434;13.206;2023-03-08T06:58:55;12.75;;;7.20;;
20306;SDS011;10312;52.434;13.206;2023-03-08T07:01:21;12.07;;;7.53;;
20306;SDS011;10312;52.434;13.206;2023-03-08T07:03:48;13.45;;;7.57;;
20306;SDS011;10312;52.434;13.206;2023-03-08T07:06:15;11.45;;;7.60;;
20306;SDS011;10312;52.434;13.206;2023-03-08T07:08:42;14.30;;;7.15;;
20306;SDS011;10312;52.434;13.206;2023-03-08T07:11:09;13.98;;;8.57;;
20306;SDS011;10312;52.434;13.206;2023-03-08T07:13:36;11.15;;;7.25;;
20306;SDS011;10312;52.434;13.206;2023-03-08T07:16:07;16.10;;;8.07;;
20306;SDS011;10312;52.434;13.206;2023-03-08T07:18:34;15.27;;;8.65;;
20306;SDS011;10312;52.434;13.206;2023-03-08T07:21:01;14.23;;;7.75;;
20306;SDS011;10312;52.434;13.206;2023-03-08T07:23:27;10.98;;;7.40;;
20306;SDS011;10312;52.434;13.206;2023-03-08T07:25:54;14.85;;;8.40;;
20306;SDS011;10312;52.434;13.206;2023-03-08T07:28:22;16.17;;;8.32;;
20306;SDS011;10312;52.434;13.206;2023-03-08T07:30:49;12.77;;;8.23;;
20306;SDS011;10312;52.434;13.206;2023-03-08T07:33:17;15.60;;;8.57;;
20306;SDS011;10312;52.434;13.206;2023-03-08T07:35:45;14.10;;;8.27;;
20306;SDS011;10312;52.434;13.206;2023-03-08T07:38:12;12.85;;;8.13;;
20306;SDS011;10312;52.434;13.206;2023-03-08T07:40:38;12.73;;;8.07;;
20306;SDS011;10312;52.434;13.206;2023-03-08T07:43:05;15.25;;;8.38;;
20306;SDS011;10312;52.434;13.206;2023-03-08T07:45:41;15.48;;;8.48;;
20306;SDS011;10312;52.434;13.206;2023-03-08T07:48:07;13.40;;;8.70;;
20306;SDS011;10312;52.434;13.206;2023-03-08T07:50:34;11.38;;;7.50;;
20306;SDS011;10312;52.434;13.206;2023-03-08T07:53:01;12.82;;;7.90;;
20306;SDS011;10312;52.434;13.206;2023-03-08T07:55:29;14.93;;;8.65;;
20306;SDS011;10312;52.434;13.206;2023-03-08T07:57:56;14.50;;;7.88;;
20306;SDS011;10312;52.434;13.206;2023-03-08T08:00:23;12.82;;;7.88;;
20306;SDS011;10312;52.434;13.206;2023-03-08T08:02:49;11.48;;;7.25;;
20306;SDS011;10312;52.434;13.206;2023-03-08T08:05:19;11.60;;;7.47;;
20306;SDS011;10312;52.434;13.206;2023-03-08T08:07:47;11.30;;;6.82;;
20306;SDS011;10312;52.434;13.206;2023-03-08T08:10:14;13.02;;;7.68;;
20306;SDS011;10312;52.434;13.206;2023-03-08T08:12:40;11.85;;;7.90;;
20306;SDS011;10312;52.434;13.206;2023-03-08T08:15:07;9.95;;;6.68;;
20306;SDS011;10312;52.434;13.206;2023-03-08T08:17:34;10.00;;;6.80;;
20306;SDS011;10312;52.434;13.206;2023-03-08T08:20:01;13.60;;;6.93;;
20306;SDS011;10312;52.434;13.206;2023-03-08T08:22:28;13.65;;;7.55;;
20306;SDS011;10312;52.434;13.206;2023-03-08T08:24:54;10.50;;;6.40;;
20306;SDS011;10312;52.434;13.206;2023-03-08T08:27:21;11.75;;;7.05;;
20306;SDS011;10312;52.434;13.206;2023-03-08T08:29:48;12.90;;;6.07;;
20306;SDS011;10312;52.434;13.206;2023-03-08T08:32:16;10.60;;;6.15;;
20306;SDS011;10312;52.434;13.206;2023-03-08T08:34:42;11.18;;;6.45;;
20306;SDS011;10312;52.434;13.206;2023-03-08T08:37:09;14.10;;;7.80;;
20306;SDS011;10312;52.434;13.206;2023-03-08T08:39:35;10.43;;;6.50;;
20306;SDS011;10312;52.434;13.206;2023-03-08T08:42:02;11.32;;;7.80;;
20306;SDS011;10312;52.434;13.206;2023-03-08T08:44:29;12.63;;;7.53;;
20306;SDS011;10312;52.434;13.206;2023-03-08T08:46:55;10.50;;;7.15;;
20306;SDS011;10312;52.434;13.206;2023-03-08T08:49:22;9.85;;;5.82;;
20306;SDS011;10312;52.434;13.206;2023-03-08T08:51:49;8.32;;;5.25;;
20306;SDS011;10312;52.434;13.206;2023-03-08T08:54:16;9.40;;;4.82;;
20306;SDS011;10312;52.434;13.206;2023-03-08T08:56:43;13.77;;;5.32;;
20306;SDS011;10312;52.434;13.206;2023-03-08T08:59:11;7.47;;;4.80;;
20306;SDS011;10312;52.434;13.206;2023-03-08T09:01:38;7.68;;;4.75;;
20306;SDS011;10312;52.434;13.206;2023-03-08T09:04:09;8.43;;;5.18;;
20306;SDS011;10312;52.434;13.206;2023-03-08T09:06:38;6.95;;;4.75;;
20306;SDS011;10312;52.434;13.206;2023-03-08T09:09:05;10.25;;;5.45;;
20306;SDS011;10312;52.434;13.206;2023-03-08T09:11:33;10.07;;;4.40;;
20306;SDS011;10312;52.434;13.206;2023-03-08T09:14:10;7.50;;;4.55;;
20306;SDS011;10312;52.434;13.206;2023-03-08T09:16:37;9.45;;;4.95;;
20306;SDS011;10312;52.434;13.206;2023-03-08T09:19:04;8.75;;;4.38;;
20306;SDS011;10312;52.434;13.206;2023-03-08T09:21:31;6.72;;;4.05;;
20306;SDS011;10312;52.434;13.206;2023-03-08T09:24:00;6.95;;;4.07;;
20306;SDS011;10312;52.434;13.206;2023-03-08T09:26:29;6.30;;;4.55;;
20306;SDS011;10312;52.434;13.206;2023-03-08T09:28:59;9.32;;;4.65;;
20306;SDS011;10312;52.434;13.206;2023-03-08T09:31:30;6.97;;;4.30;;
20306;SDS011;10312;52.434;13.206;2023-03-08T09:33:58;7.63;;;3.55;;
20306;SDS011;10312;52.434;13.206;2023-03-08T09:36:25;4.32;;;3.15;;
20306;SDS011;10312;52.434;13.206;2023-03-08T09:38:54;7.65;;;4.07;;
20306;SDS011;10312;52.434;13.206;2023-03-08T09:48:09;8.50;;;4.00;;
20306;SDS011;10312;52.434;13.206;2023-03-08T09:51:52;6.70;;;3.78;;
20306;SDS011;10312;52.434;13.206;2023-03-08T09:55:26;11.88;;;4.30;;
20306;SDS011;10312;52.434;13.206;2023-03-08T09:58:12;7.30;;;3.92;;
20306;SDS011;10312;52.434;13.206;2023-03-08T10:00:50;6.07;;;4.28;;
20306;SDS011;10312;52.434;13.206;2023-03-08T10:03:38;7.10;;;4.10;;
20306;SDS011;10312;52.434;13.206;2023-03-08T10:09:01;5.78;;;4.10;;
20306;SDS011;10312;52.434;13.206;2023-03-08T10:11:48;6.38;;;4.20;;
20306;SDS011;10312;52.434;13.206;2023-03-08T10:14:25;6.45;;;3.88;;
20306;SDS011;10312;52.434;13.206;2023-03-08T10:16:55;6.93;;;4.28;;
20306;SDS011;10312;52.434;13.206;2023-03-08T10:19:39;9.65;;;4.70;;
20306;SDS011;10312;52.434;13.206;2023-03-08T10:22:41;6.10;;;4.18;;
20306;SDS011;10312;52.434;13.206;2023-03-08T10:27:52;8.77;;;5.18;;
20306;SDS011;10312;52.434;13.206;2023-03-08T10:30:22;5.70;;;3.97;;
20306;SDS011;10312;52.434;13.206;2023-03-08T10:32:51;6.80;;;3.80;;
20306;SDS011;10312;52.434;13.206;2023-03-08T10:38:29;5.85;;;3.45;;
20306;SDS011;10312;52.434;13.206;2023-03-08T10:41:02;8.32;;;4.65;;
20306;SDS011;10312;52.434;13.206;2023-03-08T10:43:31;11.27;;;5.57;;
20306;SDS011;10312;52.434;13.206;2023-03-08T10:46:10;6.30;;;4.18;;
20306;SDS011;10312;52.434;13.206;2023-03-08T10:49:12;6.45;;;3.80;;
20306;SDS011;10312;52.434;13.206;2023-03-08T10:51:52;4.10;;;2.97;;
20306;SDS011;10312;52.434;13.206;2023-03-08T10:54:21;4.95;;;2.80;;
20306;SDS011;10312;52.434;13.206;2023-03-08T10:56:58;7.57;;;3.00;;
20306;SDS011;10312;52.434;13.206;2023-03-08T10:59:27;3.72;;;3.08;;
20306;SDS011;10312;52.434;13.206;2023-03-08T11:02:00;6.50;;;3.38;;
20306;SDS011;10312;52.434;13.206;2023-03-08T11:04:28;5.05;;;2.90;;
20306;SDS011;10312;52.434;13.206;2023-03-08T11:06:55;5.57;;;3.30;;
20306;SDS011;10312;52.434;13.206;2023-03-08T11:09:24;7.75;;;3.35;;
20306;SDS011;10312;52.434;13.206;2023-03-08T11:11:53;6.43;;;2.67;;
20306;SDS011;10312;52.434;13.206;2023-03-08T11:14:21;3.65;;;2.50;;
20306;SDS011;10312;52.434;13.206;2023-03-08T11:17:05;3.90;;;2.50;;
20306;SDS011;10312;52.434;13.206;2023-03-08T11:19:42;3.97;;;2.60;;
20306;SDS011;10312;52.434;13.206;2023-03-08T11:27:45;4.55;;;2.40;;
20306;SDS011;10312;52.434;13.206;2023-03-08T11:32:54;5.13;;;2.60;;
20306;SDS011;10312;52.434;13.206;2023-03-08T11:35:35;4.50;;;2.83;;
20306;SDS011;10312;52.434;13.206;2023-03-08T11:40:53;5.82;;;3.17;;
20306;SDS011;10312;52.434;13.206;2023-03-08T11:43:31;4.57;;;2.90;;
20306;SDS011;10312;52.434;13.206;2023-03-08T11:52:03;4.30;;;3.10;;
20306;SDS011;10312;52.434;13.206;2023-03-08T11:57:21;5.68;;;3.33;;
20306;SDS011;10312;52.434;13.206;2023-03-08T11:59:55;4.38;;;2.97;;
20306;SDS011;10312;52.434;13.206;2023-03-08T12:02:39;5.70;;;3.28;;
20306;SDS011;10312;52.434;13.206;2023-03-08T12:07:53;6.05;;;3.13;;
20306;SDS011;10312;52.434;13.206;2023-03-08T12:10:33;8.23;;;3.30;;
20306;SDS011;10312;52.434;13.206;2023-03-08T12:13:20;5.25;;;3.03;;
20306;SDS011;10312;52.434;13.206;2023-03-08T12:16:03;4.32;;;2.85;;
20306;SDS011;10312;52.434;13.206;2023-03-08T12:21:17;6.75;;;3.17;;
20306;SDS011;10312;52.434;13.206;2023-03-08T12:23:53;6.57;;;3.45;;
20306;SDS011;10312;52.434;13.206;2023-03-08T12:26:38;5.10;;;3.60;;
20306;SDS011;10312;52.434;13.206;2023-03-08T12:29:10;11.07;;;3.80;;
20306;SDS011;10312;52.434;13.206;2023-03-08T12:31:46;3.78;;;2.83;;
20306;SDS011;10312;52.434;13.206;2023-03-08T12:34:25;5.60;;;3.40;;
20306;SDS011;10312;52.434;13.206;2023-03-08T12:36:53;8.40;;;3.38;;
20306;SDS011;10312;52.434;13.206;2023-03-08T12:39:30;6.47;;;3.40;;
20306;SDS011;10312;52.434;13.206;2023-03-08T12:44:33;6.25;;;3.72;;
20306;SDS011;10312;52.434;13.206;2023-03-08T12:49:39;7.03;;;3.53;;
20306;SDS011;10312;52.434;13.206;2023-03-08T12:54:53;5.68;;;3.92;;
20306;SDS011;10312;52.434;13.206;2023-03-08T12:57:36;4.88;;;3.60;;
20306;SDS011;10312;52.434;13.206;2023-03-08T13:05:33;7.13;;;3.80;;
20306;SDS011;10312;52.434;13.206;2023-03-08T13:13:20;8.13;;;3.85;;
20306;SDS011;10312;52.434;13.206;2023-03-08T13:16:05;6.97;;;3.97;;
20306;SDS011;10312;52.434;13.206;2023-03-08T13:18:33;5.32;;;3.80;;
20306;SDS011;10312;52.434;13.206;2023-03-08T13:21:25;5.38;;;3.40;;
20306;SDS011;10312;52.434;13.206;2023-03-08T13:23:56;5.68;;;3.58;;
20306;SDS011;10312;52.434;13.206;2023-03-08T13:29:17;6.15;;;4.03;;
20306;SDS011;10312;52.434;13.206;2023-03-08T13:31:44;6.75;;;4.20;;
20306;SDS011;10312;52.434;13.206;2023-03-08T13:34:21;6.03;;;4.18;;
20306;SDS011;10312;52.434;13.206;2023-03-08T13:36:49;7.80;;;3.95;;
20306;SDS011;10312;52.434;13.206;2023-03-08T13:39:18;6.85;;;4.32;;
20306;SDS011;10312;52.434;13.206;2023-03-08T13:41:46;8.43;;;5.00;;
20306;SDS011;10312;52.434;13.206;2023-03-08T13:44:14;9.60;;;5.07;;
20306;SDS011;10312;52.434;13.206;2023-03-08T13:46:42;8.52;;;4.97;;
20306;SDS011;10312;52.434;13.206;2023-03-08T13:49:11;7.32;;;5.00;;
20306;SDS011;10312;52.434;13.206;2023-03-08T13:51:40;7.93;;;5.07;;
20306;SDS011;10312;52.434;13.206;2023-03-08T13:54:15;7.93;;;4.85;;
20306;SDS011;10312;52.434;13.206;2023-03-08T13:56:45;7.97;;;4.97;;
20306;SDS011;10312;52.434;13.206;2023-03-08T13:59:18;7.95;;;4.90;;
20306;SDS011;10312;52.434;13.206;2023-03-08T14:01:47;9.48;;;5.35;;
20306;SDS011;10312;52.434;13.206;2023-03-08T14:04:19;9.00;;;5.50;;
20306;SDS011;10312;52.434;13.206;2023-03-08T14:06:48;10.15;;;5.75;;
20306;SDS011;10312;52.434;13.206;2023-03-08T14:09:15;9.35;;;6.05;;
20306;SDS011;10312;52.434;13.206;2023-03-08T14:11:43;10.27;;;6.53;;
20306;SDS011;10312;52.434;13.206;2023-03-08T14:14:15;10.98;;;6.22;;
20306;SDS011;10312;52.434;13.206;2023-03-08T14:16:44;10.02;;;6.20;;
20306;SDS011;10312;52.434;13.206;2023-03-08T14:21:55;9.93;;;6.28;;
20306;SDS011;10312;52.434;13.206;2023-03-08T14:24:27;11.65;;;5.60;;
20306;SDS011;10312;52.434;13.206;2023-03-08T14:27:00;9.40;;;6.25;;
20306;SDS011;10312;52.434;13.206;2023-03-08T14:29:31;9.40;;;5.88;;
20306;SDS011;10312;52.434;13.206;2023-03-08T14:32:01;11.35;;;6.05;;
20306;SDS011;10312;52.434;13.206;2023-03-08T14:37:05;11.63;;;6.40;;
20306;SDS011;10312;52.434;13.206;2023-03-08T14:39:43;12.48;;;6.75;;
20306;SDS011;10312;52.434;13.206;2023-03-08T14:42:16;13.07;;;6.40;;
20306;SDS011;10312;52.434;13.206;2023-03-08T14:44:50;12.52;;;6.18;;
20306;SDS011;10312;52.434;13.206;2023-03-08T14:47:22;10.45;;;6.38;;
20306;SDS011;10312;52.434;13.206;2023-03-08T14:50:00;8.13;;;5.43;;
20306;SDS011;10312;52.434;13.206;2023-03-08T14:52:28;10.18;;;5.72;;
20306;SDS011;10312;52.434;13.206;2023-03-08T14:54:56;9.52;;;5.95;;
20306;SDS011;10312;52.434;13.206;2023-03-08T14:57:26;11.45;;;5.80;;
20306;SDS011;10312;52.434;13.206;2023-03-08T15:02:47;10.43;;;6.40;;
20306;SDS011;10312;52.434;13.206;2023-03-08T15:05:15;11.98;;;6.68;;
20306;SDS011;10312;52.434;13.206;2023-03-08T15:07:54;12.05;;;7.43;;
20306;SDS011;10312;52.434;13.206;2023-03-08T15:10:28;11.40;;;7.45;;
20306;SDS011;10312;52.434;13.206;2023-03-08T15:12:56;10.95;;;6.68;;
20306;SDS011;10312;52.434;13.206;2023-03-08T15:15:23;13.32;;;7.57;;
20306;SDS011;10312;52.434;13.206;2023-03-08T15:17:50;14.57;;;8.18;;
20306;SDS011;10312;52.434;13.206;2023-03-08T15:20:17;12.40;;;7.03;;
20306;SDS011;10312;52.434;13.206;2023-03-08T15:22:49;9.88;;;6.50;;
20306;SDS011;10312;52.434;13.206;2023-03-08T15:25:18;11.00;;;6.95;;
20306;SDS011;10312;52.434;13.206;2023-03-08T15:27:48;11.40;;;6.80;;
20306;SDS011;10312;52.434;13.206;2023-03-08T15:30:25;11.52;;;6.15;;
20306;SDS011;10312;52.434;13.206;2023-03-08T15:32:53;10.48;;;6.05;;
20306;SDS011;10312;52.434;13.206;2023-03-08T15:35:23;10.45;;;5.72;;
20306;SDS011;10312;52.434;13.206;2023-03-08T15:37:50;12.02;;;5.63;;
20306;SDS011;10312;52.434;13.206;2023-03-08T15:40:21;11.57;;;6.45;;
20306;SDS011;10312;52.434;13.206;2023-03-08T15:42:55;11.15;;;6.85;;
20306;SDS011;10312;52.434;13.206;2023-03-08T15:45:23;11.00;;;6.22;;
20306;SDS011;10312;52.434;13.206;2023-03-08T15:47:54;11.02;;;6.80;;
20306;SDS011;10312;52.434;13.206;2023-03-08T15:50:23;9.52;;;5.93;;
20306;SDS011;10312;52.434;13.206;2023-03-08T15:52:50;9.88;;;5.97;;
20306;SDS011;10312;52.434;13.206;2023-03-08T15:55:17;10.32;;;6.57;;
20306;SDS011;10312;52.434;13.206;2023-03-08T15:57:44;11.32;;;6.15;;
20306;SDS011;10312;52.434;13.206;2023-03-08T16:00:11;10.75;;;7.35;;
20306;SDS011;10312;52.434;13.206;2023-03-08T16:02:39;12.07;;;7.38;;
20306;SDS011;10312;52.434;13.206;2023-03-08T16:05:07;13.00;;;7.28;;